Time;durP1;ratioP1;P1;durP2;ratioP2;P2;SDS_P1;SDS_P2;PMS_P1;PMS_P2;Temp;Humidity;BMP_temperature;BMP_pressure;BME280_temperature;BME280_humidity;BME280_pressure;Samples;Min_cycle;Max_cycle;Signal;HPM_P1;HPM_P2
2023/05/19 00:05:17;;;;;;;;;;;11.50;99.90;;;;;;20934862;28;20379;-75
2023/05/19 00:15:18;;;;;;;;;;;11.50;99.90;;;;;;20936105;28;20981;-75
2023/05/19 00:25:18;;;;;;;;;;;11.50;99.90;;;;;;20931364;28;19917;-76
2023/05/19 00:35:19;;;;;;;;;;;11.30;99.90;;;;;;20944241;28;19913;-75
2023/05/19 00:45:20;;;;;;;;;;;11.00;99.90;;;;;;20955514;28;20434;-75
2023/05/19 00:55:22;;;;;;;;;;;11.10;99.90;;;;;;20952108;28;19913;-75
2023/05/19 01:05:23;;;;;;;;;;;11.00;99.90;;;;;;20961713;28;19966;-75
2023/05/19 01:15:25;;;;;;;;;;;10.90;99.90;;;;;;20946732;28;19940;-76
2023/05/19 01:25:26;;;;;;;;;;;10.90;99.90;;;;;;20907739;28;19916;-76
2023/05/19 01:35:27;;;;;;;;;;;10.70;99.90;;;;;;20917957;28;19912;-76
2023/05/19 01:45:29;;;;;;;;;;;10.60;99.90;;;;;;20917461;28;19960;-76
2023/05/19 01:55:30;;;;;;;;;;;10.20;99.90;;;;;;20897925;28;19912;-76
2023/05/19 02:05:37;;;;;;;;;;;9.90;99.90;;;;;;20915900;28;19959;-76
2023/05/19 02:15:39;;;;;;;;;;;9.70;99.90;;;;;;20897273;28;19913;-76
2023/05/19 02:25:40;;;;;;;;;;;9.50;99.90;;;;;;20896797;28;19915;-75
2023/05/19 02:35:40;;;;;;;;;;;9.40;99.90;;;;;;20911226;28;20379;-75
2023/05/19 02:45:41;;;;;;;;;;;9.40;99.90;;;;;;20912968;28;20380;-76
2023/05/19 02:55:42;;;;;;;;;;;9.60;99.90;;;;;;20912221;28;19924;-75
2023/05/19 03:05:42;;;;;;;;;;;9.50;99.90;;;;;;20911115;28;19919;-75
2023/05/19 03:15:43;;;;;;;;;;;9.40;99.90;;;;;;20891235;28;19935;-75
2023/05/19 03:25:44;;;;;;;;;;;9.50;99.90;;;;;;20909507;28;19909;-74
2023/05/19 03:35:45;;;;;;;;;;;9.50;99.90;;;;;;20907795;28;20007;-75
2023/05/19 03:45:46;;;;;;;;;;;9.40;99.90;;;;;;20906866;28;19915;-75
2023/05/19 03:56:26;;;;;;;;;;;9.40;99.90;;;;;;20699389;28;19965;-75
2023/05/19 04:06:27;;;;;;;;;;;9.30;99.90;;;;;;20885073;28;19973;-75
2023/05/19 04:16:27;;;;;;;;;;;9.30;99.90;;;;;;20880829;28;20201;-75
2023/05/19 04:26:29;;;;;;;;;;;9.60;99.90;;;;;;20906764;28;19915;-75
2023/05/19 04:36:32;;;;;;;;;;;9.70;99.90;;;;;;20911587;28;20375;-75
2023/05/19 04:46:34;;;;;;;;;;;9.80;99.90;;;;;;20895376;28;20363;-75
2023/05/19 04:56:35;;;;;;;;;;;10.10;99.90;;;;;;20929377;28;20022;-75
2023/05/19 05:06:37;;;;;;;;;;;10.30;99.90;;;;;;20910754;28;19986;-75
2023/05/19 05:16:39;;;;;;;;;;;10.40;99.90;;;;;;20910063;28;19926;-74
2023/05/19 05:26:43;;;;;;;;;;;10.60;99.90;;;;;;20906808;28;19939;-74
2023/05/19 05:36:43;;;;;;;;;;;10.70;99.90;;;;;;20914518;28;19959;-75
2023/05/19 05:46:44;;;;;;;;;;;10.90;99.90;;;;;;20895545;28;19909;-74
2023/05/19 05:56:46;;;;;;;;;;;11.20;99.90;;;;;;20894534;28;19919;-74
2023/05/19 06:06:47;;;;;;;;;;;11.50;99.90;;;;;;20895247;28;20409;-74
2023/05/19 06:16:53;;;;;;;;;;;11.80;99.90;;;;;;20893598;28;19913;-75
2023/05/19 06:26:54;;;;;;;;;;;12.20;99.90;;;;;;20892232;28;19970;-75
2023/05/19 06:36:55;;;;;;;;;;;12.20;99.90;;;;;;20891320;28;19999;-76
2023/05/19 06:46:56;;;;;;;;;;;12.80;99.90;;;;;;20890508;28;19912;-76
2023/05/19 06:56:57;;;;;;;;;;;13.40;99.90;;;;;;20924120;28;20398;-76
2023/05/19 07:06:58;;;;;;;;;;;13.80;99.90;;;;;;20905703;28;19920;-76
2023/05/19 07:17:01;;;;;;;;;;;14.20;99.90;;;;;;20905337;28;19921;-76
2023/05/19 07:27:02;;;;;;;;;;;14.70;99.90;;;;;;20890961;28;20263;-76
2023/05/19 07:37:02;;;;;;;;;;;15.00;99.90;;;;;;20901717;28;19913;-79
2023/05/19 07:47:03;;;;;;;;;;;15.70;99.90;;;;;;20893861;28;19909;-78
2023/05/19 07:57:04;;;;;;;;;;;15.80;99.90;;;;;;20902991;28;20363;-79
2023/05/19 08:07:05;;;;;;;;;;;16.50;99.90;;;;;;20905022;28;19916;-78
2023/05/19 08:17:05;;;;;;;;;;;15.70;99.90;;;;;;20919227;28;19917;-78
2023/05/19 08:27:06;;;;;;;;;;;15.60;99.90;;;;;;20922229;28;19909;-77
2023/05/19 08:37:07;;;;;;;;;;;15.40;99.90;;;;;;20887297;28;19913;-78
2023/05/19 08:47:12;;;;;;;;;;;16.00;99.90;;;;;;20932655;28;19994;-78
2023/05/19 08:57:13;;;;;;;;;;;17.30;99.90;;;;;;20879535;28;19913;-77
2023/05/19 09:07:14;;;;;;;;;;;16.40;99.90;;;;;;20895000;28;19920;-77
2023/05/19 09:17:16;;;;;;;;;;;17.40;99.90;;;;;;20915005;28;19966;-78
2023/05/19 09:27:21;;;;;;;;;;;17.60;99.90;;;;;;20916248;28;19916;-78
2023/05/19 09:37:23;;;;;;;;;;;17.30;99.90;;;;;;20891904;28;20278;-73
2023/05/19 09:47:23;;;;;;;;;;;17.90;99.90;;;;;;20910290;28;19937;-76
2023/05/19 09:57:25;;;;;;;;;;;17.90;99.90;;;;;;20913321;28;19916;-78
2023/05/19 10:07:26;;;;;;;;;;;18.20;99.90;;;;;;20931871;28;20432;-77
2023/05/19 10:17:27;;;;;;;;;;;19.10;99.90;;;;;;20944538;28;19909;-76
2023/05/19 10:27:28;;;;;;;;;;;20.00;99.90;;;;;;20892268;28;20363;-78
2023/05/19 10:37:30;;;;;;;;;;;20.60;99.90;;;;;;20941683;28;19934;-78
2023/05/19 10:47:32;;;;;;;;;;;20.10;99.90;;;;;;20959587;28;20276;-78
2023/05/19 10:57:33;;;;;;;;;;;21.00;99.90;;;;;;20990251;28;20337;-77
2023/05/19 11:07:34;;;;;;;;;;;21.00;99.90;;;;;;20960728;28;19920;-77
2023/05/19 11:17:35;;;;;;;;;;;20.80;99.90;;;;;;20900475;28;19909;-77
2023/05/19 11:27:37;;;;;;;;;;;20.80;99.90;;;;;;20886847;28;20011;-77
2023/05/19 11:37:39;;;;;;;;;;;20.60;99.90;;;;;;20887862;28;19987;-77
2023/05/19 11:47:40;;;;;;;;;;;20.70;99.90;;;;;;20888045;28;20462;-76
2023/05/19 11:57:43;;;;;;;;;;;21.50;99.90;;;;;;20895894;28;19952;-76
2023/05/19 12:07:46;;;;;;;;;;;21.40;99.90;;;;;;20889021;28;19951;-76
2023/05/19 12:17:50;;;;;;;;;;;21.80;99.90;;;;;;20889145;28;20006;-76
2023/05/19 12:27:55;;;;;;;;;;;20.00;99.90;;;;;;20957298;28;19917;-77
2023/05/19 12:37:56;;;;;;;;;;;20.00;99.90;;;;;;20946959;28;20382;-75
2023/05/19 12:47:57;;;;;;;;;;;19.60;99.90;;;;;;20917787;28;19913;-76
2023/05/19 12:57:57;;;;;;;;;;;19.80;99.90;;;;;;20917124;28;19909;-76
2023/05/19 13:08:06;;;;;;;;;;;19.30;99.90;;;;;;20916086;28;19923;-76
2023/05/19 13:18:08;;;;;;;;;;;18.80;99.90;;;;;;20898096;28;19916;-77
2023/05/19 13:28:09;;;;;;;;;;;18.50;99.90;;;;;;20892985;28;20004;-76
2023/05/19 13:38:09;;;;;;;;;;;18.00;99.90;;;;;;20910910;28;19940;-77
2023/05/19 13:48:10;;;;;;;;;;;17.30;99.90;;;;;;20912932;28;20308;-76
2023/05/19 13:58:13;;;;;;;;;;;16.30;99.90;;;;;;20913225;28;19908;-76
2023/05/19 14:08:15;;;;;;;;;;;16.40;99.90;;;;;;20912533;28;19952;-77
2023/05/19 14:18:15;;;;;;;;;;;16.30;99.90;;;;;;20893772;28;19930;-76
2023/05/19 14:28:16;;;;;;;;;;;16.30;99.90;;;;;;20910726;28;19962;-76
2023/05/19 14:38:17;;;;;;;;;;;15.80;99.90;;;;;;20910468;28;19908;-76
2023/05/19 14:48:17;;;;;;;;;;;16.00;99.90;;;;;;20906539;28;19940;-76
2023/05/19 14:58:18;;;;;;;;;;;16.00;99.90;;;;;;20905751;28;19909;-76
2023/05/19 15:08:19;;;;;;;;;;;16.30;99.90;;;;;;20891311;28;19922;-76
2023/05/19 15:18:19;;;;;;;;;;;16.10;99.90;;;;;;20905382;28;19909;-76
2023/05/19 15:28:20;;;;;;;;;;;15.90;99.90;;;;;;20944054;28;20407;-77
2023/05/19 15:38:21;;;;;;;;;;;16.10;99.90;;;;;;20942225;28;19908;-76
2023/05/19 15:48:21;;;;;;;;;;;16.00;99.90;;;;;;20908387;28;19948;-75
2023/05/19 15:58:22;;;;;;;;;;;16.00;99.90;;;;;;20895977;28;19913;-76
2023/05/19 16:08:23;;;;;;;;;;;15.60;99.90;;;;;;20899529;28;19913;-78
2023/05/19 16:18:24;;;;;;;;;;;15.20;99.90;;;;;;20900126;28;19909;-78
2023/05/19 16:28:25;;;;;;;;;;;15.30;99.90;;;;;;20895725;28;20359;-78
2023/05/19 16:38:25;;;;;;;;;;;15.30;99.90;;;;;;20931605;28;19909;-79
2023/05/19 16:48:26;;;;;;;;;;;15.00;99.90;;;;;;20940072;28;20450;-78
2023/05/19 16:58:27;;;;;;;;;;;14.80;99.90;;;;;;20889725;28;19908;-78
2023/05/19 17:08:27;;;;;;;;;;;14.70;99.90;;;;;;20895838;28;19963;-78
2023/05/19 17:18:30;;;;;;;;;;;14.60;99.90;;;;;;20948905;28;19924;-78
2023/05/19 17:28:31;;;;;;;;;;;14.50;99.90;;;;;;20947310;28;19939;-78
2023/05/19 17:38:31;;;;;;;;;;;14.40;99.90;;;;;;20950087;28;20113;-77
2023/05/19 17:48:32;;;;;;;;;;;14.40;99.90;;;;;;20962846;28;19971;-78
2023/05/19 17:58:33;;;;;;;;;;;14.20;99.90;;;;;;20940178;28;20343;-77
2023/05/19 18:08:35;;;;;;;;;;;14.10;99.90;;;;;;20919573;28;19916;-77
2023/05/19 18:18:38;;;;;;;;;;;14.00;99.90;;;;;;20878696;28;19917;-77
2023/05/19 18:28:39;;;;;;;;;;;13.90;99.90;;;;;;20889030;28;19978;-79
2023/05/19 18:38:40;;;;;;;;;;;13.90;99.90;;;;;;20922231;28;19908;-78
2023/05/19 18:48:40;;;;;;;;;;;13.80;99.90;;;;;;20923932;28;19917;-78
2023/05/19 18:58:41;;;;;;;;;;;13.70;99.90;;;;;;20905186;28;20392;-78
2023/05/19 19:08:42;;;;;;;;;;;13.60;99.90;;;;;;20912752;28;19966;-78
2023/05/19 19:18:43;;;;;;;;;;;13.50;99.90;;;;;;20919298;28;20325;-78
2023/05/19 19:28:45;;;;;;;;;;;13.50;99.90;;;;;;20904100;28;19956;-77
2023/05/19 19:38:45;;;;;;;;;;;13.50;99.90;;;;;;20878651;28;19912;-77
2023/05/19 19:48:46;;;;;;;;;;;13.50;99.90;;;;;;20904747;28;19978;-77
2023/05/19 19:58:47;;;;;;;;;;;13.50;99.90;;;;;;20905766;28;19916;-77
2023/05/19 20:08:48;;;;;;;;;;;13.40;99.90;;;;;;20894337;28;19965;-78
2023/05/19 20:18:49;;;;;;;;;;;13.40;99.90;;;;;;20904126;28;19909;-77
2023/05/19 20:28:49;;;;;;;;;;;13.30;99.90;;;;;;20905778;28;20291;-77
2023/05/19 20:38:50;;;;;;;;;;;13.20;99.90;;;;;;20888776;28;19919;-77
2023/05/19 20:48:51;;;;;;;;;;;13.10;99.90;;;;;;20892843;28;20003;-78
2023/05/19 20:58:51;;;;;;;;;;;13.10;99.90;;;;;;20908650;28;20288;-77
2023/05/19 21:08:52;;;;;;;;;;;13.00;99.90;;;;;;20922399;28;19919;-77
2023/05/19 21:18:53;;;;;;;;;;;12.90;99.90;;;;;;20903619;28;20342;-77
2023/05/19 21:28:53;;;;;;;;;;;13.00;99.90;;;;;;20919936;28;19959;-77
2023/05/19 21:38:54;;;;;;;;;;;12.90;99.90;;;;;;20920444;28;20078;-77
2023/05/19 21:48:54;;;;;;;;;;;12.80;99.90;;;;;;20943797;28;20367;-78
2023/05/19 21:58:55;;;;;;;;;;;12.60;99.90;;;;;;20941003;28;19909;-77
2023/05/19 22:08:59;;;;;;;;;;;12.60;99.90;;;;;;20916308;28;19917;-77
2023/05/19 22:19:00;;;;;;;;;;;12.70;99.90;;;;;;20920803;28;19908;-77
2023/05/19 22:29:00;;;;;;;;;;;12.80;99.90;;;;;;20911410;28;19979;-77
2023/05/19 22:39:01;;;;;;;;;;;12.90;99.90;;;;;;20915474;28;19928;-78
2023/05/19 22:49:02;;;;;;;;;;;12.70;99.90;;;;;;20907899;28;20442;-77
2023/05/19 22:59:02;;;;;;;;;;;12.30;99.90;;;;;;20905972;28;19916;-77
2023/05/19 23:09:03;;;;;;;;;;;12.20;99.90;;;;;;20901412;28;19935;-77
2023/05/19 23:19:04;;;;;;;;;;;12.30;99.90;;;;;;20902658;28;19908;-77
2023/05/19 23:29:05;;;;;;;;;;;12.30;99.90;;;;;;20909913;28;19916;-77
2023/05/19 23:39:05;;;;;;;;;;;12.40;99.90;;;;;;20919722;28;19919;-77
2023/05/19 23:49:06;;;;;;;;;;;12.50;99.90;;;;;;20904586;28;19912;-78
2023/05/19 23:59:07;;;;;;;;;;;12.30;99.90;;;;;;20948923;28;20272;-77
